Time;durP1;ratioP1;P1;durP2;ratioP2;P2;SDS_P1;SDS_P2;PMS_P1;PMS_P2;Temp;Humidity;BMP_temperature;BMP_pressure;BME280_temperature;BME280_humidity;BME280_pressure;Samples;Min_cycle;Max_cycle;Signal;HPM_P1;HPM_P2
2023/10/23 00:00:26;;;;;;;8.30;3.05;;;;;;;-146.27;84.53;83296.28;5021217;28;20434;-73
2023/10/23 00:02:52;;;;;;;6.07;3.50;;;;;;;-146.27;84.53;83366.59;5020826;28;20389;-74
2023/10/23 00:05:17;;;;;;;6.07;3.08;;;;;;;-146.27;84.34;83356.56;5018346;28;20026;-73
2023/10/23 00:07:42;;;;;;;5.72;3.67;;;;;;;-146.27;84.21;83350.53;5016954;28;20033;-73
2023/10/23 00:10:08;;;;;;;4.00;3.28;;;;;;;-146.27;83.93;83354.56;5031306;28;20029;-73
2023/10/23 00:12:33;;;;;;;8.07;3.42;;;;;;;-146.27;84.29;83374.66;5017005;28;20539;-73
2023/10/23 00:14:59;;;;;;;12.00;3.53;;;;;;;-146.27;84.33;83414.84;5038895;28;20021;-73
2023/10/23 00:17:24;;;;;;;4.63;3.10;;;;;;;-146.27;84.39;83436.94;5025235;28;20052;-72
2023/10/23 00:19:50;;;;;;;5.68;3.30;;;;;;;-146.27;84.46;83388.72;5021340;28;20135;-74
2023/10/23 00:22:15;;;;;;;3.85;2.90;;;;;;;-146.27;84.88;83420.88;5027255;28;20033;-73
2023/10/23 00:24:40;;;;;;;4.50;3.08;;;;;;;-146.27;84.27;83434.94;5027789;28;20105;-73
2023/10/23 00:27:06;;;;;;;5.05;2.80;;;;;;;-146.27;83.95;83424.88;5029828;28;20048;-73
2023/10/23 00:29:31;;;;;;;8.88;2.90;;;;;;;-146.27;83.96;83457.03;5027052;28;20032;-73
2023/10/23 00:31:56;;;;;;;5.22;2.90;;;;;;;-146.27;84.09;83436.94;5034528;28;20029;-73
2023/10/23 00:34:22;;;;;;;5.32;2.90;;;;;;;-146.27;83.97;83483.16;5021599;28;20100;-73
2023/10/23 00:36:47;;;;;;;11.05;3.10;;;;;;;-146.27;84.17;83465.06;5028296;28;20112;-73
2023/10/23 00:39:12;;;;;;;9.07;3.30;;;;;;;-146.27;84.16;83487.16;5030783;28;20020;-73
2023/10/23 00:41:38;;;;;;;5.50;3.17;;;;;;;-146.27;83.97;83485.16;5030197;28;20047;-73
2023/10/23 00:44:04;;;;;;;5.75;3.45;;;;;;;-146.27;84.19;83505.25;5025382;28;20030;-73
2023/10/23 00:46:33;;;;;;;5.50;3.38;;;;;;;-146.27;83.92;83551.47;5023836;28;20528;-73
2023/10/23 00:48:59;;;;;;;6.35;2.90;;;;;;;-146.27;84.56;83535.41;5037267;28;20024;-73
2023/10/23 00:51:25;;;;;;;7.22;3.55;;;;;;;-146.27;84.30;83541.41;5037814;28;20039;-73
2023/10/23 00:53:51;;;;;;;5.60;3.38;;;;;;;-146.27;83.93;83561.53;5019215;28;20056;-73
2023/10/23 00:56:18;;;;;;;3.88;2.88;;;;;;;-146.27;84.09;83509.28;5022699;28;20517;-73
2023/10/23 00:58:44;;;;;;;7.20;2.92;;;;;;;-146.27;84.43;83529.38;5020010;28;20047;-73
2023/10/23 01:01:13;;;;;;;7.10;3.60;;;;;;;-146.27;84.34;83533.38;5026078;28;20030;-73
2023/10/23 01:03:39;;;;;;;7.45;3.17;;;;;;;-146.27;84.45;83545.44;5021911;28;20020;-73
2023/10/23 01:06:05;;;;;;;6.97;3.53;;;;;;;-146.27;83.87;83573.56;5041915;28;20021;-73
2023/10/23 01:08:31;;;;;;;5.35;2.88;;;;;;;-146.27;83.85;83563.53;5034173;28;20030;-73
2023/10/23 01:10:58;;;;;;;4.53;3.13;;;;;;;-146.27;83.90;83557.50;5019618;28;20060;-73
2023/10/23 01:13:25;;;;;;;6.22;3.22;;;;;;;-146.27;83.43;83585.63;5024299;28;20053;-73
2023/10/23 01:15:51;;;;;;;9.65;3.28;;;;;;;-146.27;83.67;83619.78;5019921;28;20883;-73
2023/10/23 01:18:16;;;;;;;4.30;3.00;;;;;;;-146.27;83.99;83615.78;5040748;28;20029;-73
2023/10/23 01:20:42;;;;;;;7.10;3.20;;;;;;;-146.27;84.18;83581.59;5027217;28;20055;-73
2023/10/23 01:23:08;;;;;;;6.45;3.33;;;;;;;-146.27;84.91;83593.66;5017552;28;20030;-73
2023/10/23 01:25:33;;;;;;;6.20;3.67;;;;;;;-146.27;84.72;83573.56;5029537;28;20025;-73
2023/10/23 01:27:59;;;;;;;5.85;3.40;;;;;;;-146.27;84.47;83601.72;5018976;28;20022;-73
2023/10/23 01:30:24;;;;;;;8.75;3.72;;;;;;;-146.27;85.18;83559.50;5014274;28;20034;-73
2023/10/23 01:32:50;;;;;;;6.82;3.55;;;;;;;-146.27;85.23;83583.63;5032183;28;20032;-73
2023/10/23 01:35:15;;;;;;;6.47;4.15;;;;;;;-146.27;84.32;83573.56;5016740;28;20033;-73
2023/10/23 01:37:41;;;;;;;8.88;3.75;;;;;;;-146.27;84.66;83617.78;5024687;28;20022;-73
2023/10/23 01:40:07;;;;;;;7.25;3.72;;;;;;;-146.27;84.37;83549.47;5040213;28;20032;-73
2023/10/23 01:42:33;;;;;;;6.40;3.88;;;;;;;-146.27;84.50;83617.78;5022225;28;20478;-73
2023/10/23 01:44:58;;;;;;;7.43;4.40;;;;;;;-146.27;84.80;83601.72;5012734;28;20018;-74
2023/10/23 01:47:25;;;;;;;5.85;3.70;;;;;;;-146.27;84.23;83611.75;5009042;28;20030;-72
2023/10/23 01:49:50;;;;;;;6.93;3.70;;;;;;;-146.27;84.44;83611.75;5011013;28;20033;-73
2023/10/23 01:52:16;;;;;;;5.32;3.75;;;;;;;-146.27;83.78;83653.94;5019067;28;20111;-73
2023/10/23 01:54:41;;;;;;;4.93;3.50;;;;;;;-146.27;83.74;83649.94;5029834;28;20022;-73
2023/10/23 01:57:07;;;;;;;5.93;3.88;;;;;;;-146.27;83.73;83649.94;5026842;28;20042;-73
2023/10/23 01:59:32;;;;;;;6.50;3.85;;;;;;;-146.27;84.07;83662.00;5030494;28;20713;-73
2023/10/23 02:01:58;;;;;;;4.55;3.55;;;;;;;-146.27;84.40;83629.84;5018012;28;20026;-72
2023/10/23 02:04:23;;;;;;;6.80;3.92;;;;;;;-146.27;84.24;83623.81;5011002;28;20021;-73
2023/10/23 02:06:48;;;;;;;9.75;4.25;;;;;;;-146.27;84.83;83666.00;5032349;28;20103;-73
2023/10/23 02:09:14;;;;;;;6.15;4.28;;;;;;;-146.27;84.37;83655.97;5015857;28;20116;-73
2023/10/23 02:11:39;;;;;;;15.73;4.47;;;;;;;-146.27;83.90;83631.84;5033091;28;20025;-73
2023/10/23 02:14:04;;;;;;;7.13;4.28;;;;;;;-146.27;83.80;83649.94;5023429;28;20025;-72
2023/10/23 02:16:29;;;;;;;10.68;4.90;;;;;;;-146.27;84.51;83637.88;5021031;28;20145;-73
2023/10/23 02:18:55;;;;;;;13.50;5.53;;;;;;;-146.27;84.37;83670.03;5014078;28;20053;-73
2023/10/23 02:21:20;;;;;;;8.90;5.50;;;;;;;-146.27;84.16;83633.84;5013147;28;20026;-73
2023/10/23 02:23:45;;;;;;;7.80;5.22;;;;;;;-146.27;83.96;83684.09;5017826;28;20022;-73
2023/10/23 02:26:11;;;;;;;7.30;5.00;;;;;;;-146.27;84.15;83684.09;5035347;28;20123;-72
2023/10/23 02:28:36;;;;;;;8.70;4.82;;;;;;;-146.27;84.27;83633.84;5029141;28;20095;-72
2023/10/23 02:31:05;;;;;;;7.18;4.78;;;;;;;-146.27;84.21;83668.00;5037598;28;20099;-73
2023/10/23 02:33:30;;;;;;;12.60;5.03;;;;;;;-146.27;84.65;83686.09;5040338;28;20116;-73
2023/10/23 02:35:56;;;;;;;9.02;5.00;;;;;;;-146.27;84.62;83674.03;5033320;28;20112;-73
2023/10/23 02:38:21;;;;;;;7.88;5.25;;;;;;;-146.27;84.05;83682.09;5031555;28;20026;-73
2023/10/23 02:40:51;;;;;;;10.02;4.68;;;;;;;-146.27;84.01;83728.31;5032579;28;20029;-73
2023/10/23 02:43:17;;;;;;;6.68;4.30;;;;;;;-146.27;84.20;83702.19;5023331;28;20497;-73
2023/10/23 02:45:42;;;;;;;7.38;4.93;;;;;;;-146.27;83.74;83670.03;5037524;28;20034;-73
2023/10/23 02:48:07;;;;;;;10.25;4.63;;;;;;;-146.27;83.72;83758.44;5014204;28;20030;-73
2023/10/23 02:50:33;;;;;;;8.65;5.07;;;;;;;-146.27;83.80;83722.28;5017337;28;20101;-75
2023/10/23 02:52:58;;;;;;;5.30;4.53;;;;;;;-146.27;83.82;83716.25;5024341;28;20036;-73
2023/10/23 02:55:25;;;;;;;8.65;4.50;;;;;;;-146.27;84.08;83750.41;5023565;28;20421;-73
2023/10/23 02:57:51;;;;;;;7.00;4.50;;;;;;;-146.27;83.86;83746.38;5029646;28;20474;-73
2023/10/23 03:00:16;;;;;;;6.10;4.55;;;;;;;-146.27;84.04;83744.38;5044365;28;20032;-72
2023/10/23 03:02:44;;;;;;;9.07;4.47;;;;;;;-146.27;83.45;83742.38;5025621;28;20116;-73
2023/10/23 03:05:09;;;;;;;10.05;4.65;;;;;;;-146.27;83.79;83694.13;5044074;28;20082;-73
2023/10/23 03:07:35;;;;;;;7.00;4.63;;;;;;;-146.27;83.99;83746.38;5018721;28;20026;-73
2023/10/23 03:10:00;;;;;;;11.05;4.75;;;;;;;-146.27;84.17;83726.28;5040541;28;20120;-73
2023/10/23 03:12:26;;;;;;;7.03;4.47;;;;;;;-146.27;83.71;83750.41;5024779;28;20026;-73
2023/10/23 03:14:52;;;;;;;7.22;5.00;;;;;;;-146.27;83.80;83736.34;5013037;28;20049;-73
2023/10/23 03:17:18;;;;;;;5.85;4.15;;;;;;;-146.27;84.00;83762.47;5035801;28;20375;-73
2023/10/23 03:19:43;;;;;;;8.35;4.75;;;;;;;-146.27;83.84;83718.25;5045782;28;20029;-73
2023/10/23 03:22:09;;;;;;;8.00;4.45;;;;;;;-146.27;83.60;83766.47;5032623;28;20048;-73
2023/10/23 03:24:34;;;;;;;10.10;4.97;;;;;;;-146.27;83.66;83774.53;5030647;28;20553;-73
2023/10/23 03:27:00;;;;;;;11.15;4.82;;;;;;;-146.27;83.23;83794.63;5030042;28;20028;-73
2023/10/23 03:29:25;;;;;;;8.82;4.40;;;;;;;-146.27;83.02;83808.69;5016549;28;20034;-73
2023/10/23 03:31:51;;;;;;;6.25;4.93;;;;;;;-146.27;83.84;83766.47;5035857;28;20061;-73
2023/10/23 03:34:17;;;;;;;8.50;4.72;;;;;;;-146.27;85.26;83788.59;5038972;28;20098;-73
2023/10/23 03:36:42;;;;;;;6.45;4.75;;;;;;;-146.27;84.04;83768.50;5045750;28;20036;-73
2023/10/23 03:39:08;;;;;;;6.28;4.28;;;;;;;-146.27;84.22;83792.59;5034608;28;20031;-73
2023/10/23 03:41:33;;;;;;;17.60;5.35;;;;;;;-146.27;83.80;83796.63;5036049;28;20385;-73
2023/10/23 03:44:01;;;;;;;9.50;4.82;;;;;;;-146.27;84.06;83782.56;5043894;28;20025;-73
2023/10/23 03:46:27;;;;;;;10.38;5.50;;;;;;;-146.27;83.91;83818.72;5021027;28;20117;-73
2023/10/23 03:48:54;;;;;;;14.38;5.70;;;;;;;-146.27;83.40;83790.59;5027996;28;20105;-73
2023/10/23 03:51:20;;;;;;;13.05;6.35;;;;;;;-146.27;84.26;83824.75;5027575;28;20448;-73
2023/10/23 03:53:45;;;;;;;10.45;6.07;;;;;;;-146.27;84.88;83802.66;5029784;28;20017;-73
2023/10/23 03:56:11;;;;;;;13.63;6.68;;;;;;;-146.27;85.47;83804.66;5042724;28;20024;-73
2023/10/23 03:58:36;;;;;;;18.63;6.85;;;;;;;-146.27;84.83;83796.63;5035008;28;20017;-73
2023/10/23 04:01:02;;;;;;;13.18;6.55;;;;;;;-146.27;85.62;83752.41;5026047;28;20025;-73
2023/10/23 04:03:28;;;;;;;14.38;6.55;;;;;;;-146.27;85.31;83784.56;5025574;28;20017;-73
2023/10/23 04:05:53;;;;;;;10.50;6.82;;;;;;;-146.27;85.83;83778.53;5010076;28;20386;-73
2023/10/23 04:08:19;;;;;;;11.98;7.50;;;;;;;-146.27;86.31;83778.53;5036560;28;20025;-73
2023/10/23 04:10:46;;;;;;;17.15;7.63;;;;;;;-146.27;86.88;83738.34;5019033;28;20034;-73
2023/10/23 04:13:12;;;;;;;18.52;7.93;;;;;;;-146.27;87.16;83706.19;5021851;28;20525;-73
2023/10/23 04:15:37;;;;;;;44.22;8.90;;;;;;;-146.27;87.02;83702.19;5018265;28;20103;-73
2023/10/23 04:18:02;;;;;;;32.75;8.93;;;;;;;-146.27;86.92;83680.06;5038331;28;20067;-74
2023/10/23 04:20:29;;;;;;;20.98;8.70;;;;;;;-146.27;86.87;83621.81;5026142;28;20037;-73
2023/10/23 04:22:54;;;;;;;40.13;9.57;;;;;;;-146.27;87.02;83657.97;5016762;28;20026;-73
2023/10/23 04:25:20;;;;;;;71.13;8.60;;;;;;;-146.27;87.46;83662.00;5012420;28;20028;-73
2023/10/23 04:27:45;;;;;;;14.07;8.40;;;;;;;-146.27;87.59;83609.75;5022035;28;20026;-73
2023/10/23 04:30:11;;;;;;;30.77;8.85;;;;;;;-146.27;87.65;83637.88;5010960;28;20032;-73
2023/10/23 04:32:37;;;;;;;19.20;9.52;;;;;;;-146.27;87.69;83601.72;5015416;28;20038;-73
2023/10/23 04:35:02;;;;;;;15.60;9.23;;;;;;;-146.27;87.32;83557.50;5011471;28;20052;-73
2023/10/23 04:37:27;;;;;;;41.85;10.35;;;;;;;-146.27;87.60;83577.59;5010337;28;20095;-73
2023/10/23 04:39:53;;;;;;;18.27;8.93;;;;;;;-146.27;87.67;83571.56;5023784;28;20169;-73
2023/10/23 04:42:18;;;;;;;18.80;8.25;;;;;;;-146.27;87.56;83565.53;5023382;28;20021;-73
2023/10/23 04:44:46;;;;;;;13.48;8.80;;;;;;;-146.27;87.52;83561.53;5016026;28;20120;-73
2023/10/23 04:47:12;;;;;;;10.38;8.18;;;;;;;-146.27;87.24;83549.47;5017125;28;20092;-73
2023/10/23 04:49:37;;;;;;;11.43;8.82;;;;;;;-146.27;87.43;83481.16;5033505;28;20025;-73
2023/10/23 04:52:03;;;;;;;18.40;9.55;;;;;;;-146.27;87.76;83519.31;5025268;28;20032;-73
2023/10/23 04:54:28;;;;;;;15.02;8.88;;;;;;;-146.27;87.86;83533.38;5042295;28;20491;-73
2023/10/23 04:56:53;;;;;;;14.05;9.25;;;;;;;-146.27;88.08;83533.38;5034191;28;20567;-73
2023/10/23 04:59:19;;;;;;;14.20;8.55;;;;;;;-146.27;88.12;83489.19;5022988;28;20701;-73
2023/10/23 05:01:44;;;;;;;17.38;10.00;;;;;;;-146.27;88.35;83525.34;5033737;28;20472;-73
2023/10/23 05:04:09;;;;;;;17.88;10.27;;;;;;;-146.27;88.35;83485.16;5033811;28;20743;-73
2023/10/23 05:06:36;;;;;;;51.88;9.73;;;;;;;-146.27;88.01;83501.22;5038652;28;20033;-73
2023/10/23 05:09:02;;;;;;;26.48;10.48;;;;;;;-146.27;87.84;83527.34;5027245;28;20103;-73
2023/10/23 05:11:28;;;;;;;22.30;10.15;;;;;;;-146.27;87.97;83501.22;5028571;28;20033;-74
2023/10/23 05:13:53;;;;;;;33.85;10.68;;;;;;;-146.27;88.37;83539.41;5012350;28;20124;-73
2023/10/23 05:16:18;;;;;;;13.68;9.63;;;;;;;-146.27;88.13;83501.22;5040593;28;20128;-73
2023/10/23 05:18:44;;;;;;;64.45;10.75;;;;;;;-146.27;87.95;83517.31;5021605;28;20503;-74
2023/10/23 05:21:12;;;;;;;29.27;10.50;;;;;;;-146.27;88.02;83521.34;5034671;28;20021;-76
2023/10/23 05:23:41;;;;;;;71.00;10.82;;;;;;;-146.27;87.98;83473.09;5031987;28;20051;-76
2023/10/23 05:26:10;;;;;;;31.92;10.48;;;;;;;-146.27;87.93;83503.25;5029776;28;20075;-76
2023/10/23 05:28:38;;;;;;;35.95;12.85;;;;;;;-146.27;88.16;83501.22;5011301;28;20045;-76
2023/10/23 05:31:03;;;;;;;23.55;10.25;;;;;;;-146.27;88.23;83505.25;5017243;28;20033;-77
2023/10/23 05:33:28;;;;;;;21.30;11.57;;;;;;;-146.27;88.32;83497.22;5023065;28;20072;-76
2023/10/23 05:36:04;;;;;;;28.73;11.95;;;;;;;-146.27;88.21;83509.28;5027777;28;20041;-73
2023/10/23 05:38:32;;;;;;;28.25;10.98;;;;;;;-146.27;88.35;83537.41;5025277;28;20109;-75
2023/10/23 05:40:58;;;;;;;80.72;12.65;;;;;;;-146.27;88.19;83517.31;5029112;28;20034;-74
2023/10/23 05:43:26;;;;;;;31.67;11.80;;;;;;;-146.27;88.42;83509.28;5036080;28;20026;-74
2023/10/23 05:45:51;;;;;;;25.25;12.68;;;;;;;-146.27;88.42;83533.38;5030017;28;20099;-75
2023/10/23 05:48:16;;;;;;;30.42;12.00;;;;;;;-146.27;88.63;83503.25;5034135;28;20515;-73
2023/10/23 05:50:42;;;;;;;47.55;12.65;;;;;;;-146.27;89.24;83513.28;5031466;28;20029;-74
2023/10/23 05:53:07;;;;;;;69.40;13.75;;;;;;;-146.27;89.13;83493.19;5011683;28;20029;-75
2023/10/23 05:55:35;;;;;;;23.42;14.07;;;;;;;-146.27;89.17;83453.00;5039310;28;20024;-75
2023/10/23 05:58:01;;;;;;;39.88;14.10;;;;;;;-146.27;89.09;83451.00;5037550;28;20033;-76
2023/10/23 06:00:27;;;;;;;81.63;14.27;;;;;;;-146.27;89.37;83455.03;5040358;28;20618;-74
2023/10/23 06:02:52;;;;;;;65.30;14.45;;;;;;;-146.27;89.37;83451.00;5030783;28;20466;-73
2023/10/23 06:05:18;;;;;;;122.00;16.20;;;;;;;-146.27;89.80;83436.94;5031220;28;20022;-75
2023/10/23 06:07:43;;;;;;;76.25;15.68;;;;;;;-146.27;89.68;83481.16;5023169;28;20064;-74
2023/10/23 06:10:09;;;;;;;31.88;15.30;;;;;;;-146.27;89.67;83436.94;5046980;28;20045;-70
2023/10/23 06:12:34;;;;;;;66.40;17.73;;;;;;;-146.27;89.23;83473.09;5024294;28;20029;-71
2023/10/23 06:15:00;;;;;;;30.05;16.38;;;;;;;-146.27;89.29;83440.94;5027376;28;20025;-71
2023/10/23 06:17:25;;;;;;;60.67;18.33;;;;;;;-146.27;89.16;83459.03;5027384;28;20037;-70
2023/10/23 06:19:51;;;;;;;39.03;16.23;;;;;;;-146.27;89.37;83424.88;5028663;28;20670;-71
2023/10/23 06:22:16;;;;;;;69.28;16.88;;;;;;;-146.27;89.46;83428.91;5019949;28;20045;-71
2023/10/23 06:24:44;;;;;;;77.40;18.88;;;;;;;-146.27;89.75;83380.69;5026774;28;20033;-71
2023/10/23 06:27:10;;;;;;;116.07;19.63;;;;;;;-146.27;89.68;83374.66;5027918;28;20402;-71
2023/10/23 06:29:35;;;;;;;51.28;18.02;;;;;;;-146.27;89.77;83404.78;5034731;28;20029;-73
2023/10/23 06:32:01;;;;;;;108.50;20.08;;;;;;;-146.27;89.64;83384.69;5027541;28;20057;-74
2023/10/23 06:34:26;;;;;;;61.50;19.67;;;;;;;-146.27;89.54;83388.72;5013680;28;20029;-76
2023/10/23 06:36:51;;;;;;;37.58;18.48;;;;;;;-146.27;89.38;83396.75;5027227;28;20025;-73
2023/10/23 06:39:17;;;;;;;64.88;22.08;;;;;;;-146.27;89.63;83432.91;5033351;28;20493;-76
2023/10/23 06:41:42;;;;;;;57.50;20.30;;;;;;;-146.27;89.58;83392.72;5042357;28;20028;-75
2023/10/23 06:44:07;;;;;;;77.07;20.10;;;;;;;-146.27;89.64;83376.66;5036126;28;20105;-77
2023/10/23 06:46:33;;;;;;;58.28;19.13;;;;;;;-146.27;89.65;83376.66;5033322;28;20028;-78
2023/10/23 06:48:58;;;;;;;59.08;20.08;;;;;;;-146.27;89.72;83372.63;5031956;28;20029;-78
2023/10/23 06:51:24;;;;;;;55.22;19.58;;;;;;;-146.27;89.32;83344.50;5031161;28;20030;-78
2023/10/23 06:53:49;;;;;;;42.08;19.50;;;;;;;-146.27;89.30;83310.34;5032562;28;20456;-78
2023/10/23 06:56:14;;;;;;;78.28;19.52;;;;;;;-146.27;89.25;83288.25;5033381;28;20025;-77
2023/10/23 06:58:40;;;;;;;37.60;18.42;;;;;;;-146.27;89.37;83312.34;5031405;28;20034;-77
2023/10/23 07:01:07;;;;;;;88.32;20.98;;;;;;;-146.27;89.37;83312.34;5031123;28;20029;-78
2023/10/23 07:03:33;;;;;;;59.67;19.00;;;;;;;-146.27;89.34;83336.47;5030816;28;20025;-78
2023/10/23 07:05:58;;;;;;;69.18;21.38;;;;;;;-146.27;89.57;83320.41;5031696;28;20087;-78
2023/10/23 07:08:23;;;;;;;49.80;20.55;;;;;;;-146.27;89.79;83312.34;5031935;28;20031;-78
2023/10/23 07:10:49;;;;;;;61.30;21.17;;;;;;;-146.27;89.83;83314.38;5033193;28;20021;-78
2023/10/23 07:13:15;;;;;;;94.57;23.90;;;;;;;-146.27;89.78;83232.00;5030194;28;20033;-77
2023/10/23 07:15:40;;;;;;;73.57;22.95;;;;;;;-146.27;90.00;83312.34;5045193;28;20041;-79
2023/10/23 07:18:05;;;;;;;68.72;22.75;;;;;;;-146.27;89.97;83300.31;5035348;28;20025;-80
2023/10/23 07:20:31;;;;;;;69.57;22.67;;;;;;;-146.27;90.17;83294.28;5039153;28;20124;-80
2023/10/23 07:22:56;;;;;;;115.47;25.25;;;;;;;-146.27;90.16;83260.13;5034950;28;20032;-79
2023/10/23 07:25:22;;;;;;;124.35;25.70;;;;;;;-146.27;90.14;83260.13;5033823;28;20060;-80
2023/10/23 07:27:48;;;;;;;167.65;29.52;;;;;;;-146.27;90.29;83219.94;5039417;28;20147;-80
2023/10/23 07:30:13;;;;;;;158.05;27.20;;;;;;;-146.27;90.23;83286.25;5039297;28;20021;-80
2023/10/23 07:32:40;;;;;;;178.38;28.33;;;;;;;-146.27;90.14;83262.13;5036928;28;20043;-80
2023/10/23 07:35:08;;;;;;;108.28;26.42;;;;;;;-146.27;90.11;83260.13;5042493;28;20021;-80
2023/10/23 07:37:33;;;;;;;211.00;29.85;;;;;;;-146.27;90.17;83232.00;5041165;28;20579;-80
2023/10/23 07:40:00;;;;;;;187.32;30.30;;;;;;;-146.27;90.06;83203.88;5046700;28;20064;-79
2023/10/23 07:42:26;;;;;;;156.57;28.80;;;;;;;-146.27;90.13;83229.97;5035501;28;20028;-80
2023/10/23 07:44:51;;;;;;;103.25;25.40;;;;;;;-146.27;90.08;83223.94;5035899;28;20022;-77
2023/10/23 07:47:17;;;;;;;136.40;27.73;;;;;;;-146.27;90.25;83229.97;5045726;28;20033;-74
2023/10/23 07:49:44;;;;;;;117.38;28.08;;;;;;;-146.27;90.15;83205.88;5033020;28;20057;-77
2023/10/23 07:52:09;;;;;;;68.50;25.55;;;;;;;-146.27;89.94;83248.06;5028914;28;20037;-77
2023/10/23 07:54:35;;;;;;;93.18;25.58;;;;;;;-146.27;90.18;83244.03;5040279;28;20031;-78
2023/10/23 07:57:00;;;;;;;95.32;26.80;;;;;;;-146.27;89.86;83139.56;5046441;28;20028;-78
2023/10/23 07:59:26;;;;;;;70.10;26.20;;;;;;;-146.27;89.92;83179.75;5033136;28;20064;-78
2023/10/23 08:01:52;;;;;;;177.07;28.42;;;;;;;-146.27;90.07;83209.88;5032040;28;20021;-78
2023/10/23 08:04:18;;;;;;;109.78;25.88;;;;;;;-146.27;90.23;83203.88;5048258;28;20071;-78
2023/10/23 08:06:43;;;;;;;74.88;25.45;;;;;;;-146.27;90.09;83209.88;5046568;28;20119;-79
2023/10/23 08:09:10;;;;;;;100.55;26.27;;;;;;;-146.27;90.18;83183.78;5035215;28;20389;-78
2023/10/23 08:11:35;;;;;;;79.18;26.10;;;;;;;-146.27;90.17;83171.72;5048535;28;20021;-77
2023/10/23 08:14:00;;;;;;;89.85;27.52;;;;;;;-146.27;90.47;83179.75;5038196;28;20032;-78
2023/10/23 08:16:26;;;;;;;85.85;26.63;;;;;;;-146.27;90.45;83139.56;5046774;28;20045;-78
2023/10/23 08:18:54;;;;;;;120.05;25.70;;;;;;;-146.27;90.49;83171.72;5046086;28;20029;-79
2023/10/23 08:21:22;;;;;;;63.13;23.55;;;;;;;-146.27;90.45;83175.72;5033667;28;20119;-79
2023/10/23 08:23:52;;;;;;;87.65;24.90;;;;;;;-146.27;90.23;83169.69;5036048;28;20409;-78
2023/10/23 08:26:18;;;;;;;72.70;24.50;;;;;;;-146.27;90.37;83163.69;5042907;28;20030;-78
2023/10/23 08:28:43;;;;;;;69.78;25.05;;;;;;;-146.27;90.43;83139.56;5038374;28;20063;-75
2023/10/23 08:31:09;;;;;;;64.18;23.20;;;;;;;-146.27;90.34;83157.66;5044296;28;20040;-71
2023/10/23 08:33:34;;;;;;;57.50;22.40;;;;;;;-146.27;90.24;83127.50;5040369;28;20044;-75
2023/10/23 08:35:59;;;;;;;55.10;22.35;;;;;;;-146.27;90.04;83109.44;5045335;28;20017;-75
2023/10/23 08:38:25;;;;;;;82.82;24.55;;;;;;;-146.27;89.90;83143.59;5033765;28;20379;-74
2023/10/23 08:40:50;;;;;;;61.38;23.13;;;;;;;-146.27;90.00;83155.63;5044467;28;20033;-76
2023/10/23 08:43:16;;;;;;;97.03;23.85;;;;;;;-146.27;90.39;83139.56;5036948;28;20032;-76
2023/10/23 08:45:43;;;;;;;63.05;22.67;;;;;;;-146.27;90.35;83131.53;5045381;28;20112;-76
2023/10/23 08:48:09;;;;;;;59.38;22.58;;;;;;;-146.27;90.58;83115.47;5049060;28;20058;-75
2023/10/23 08:50:36;;;;;;;52.00;20.83;;;;;;;-146.27;90.37;83131.53;5038985;28;20415;-75
2023/10/23 08:53:07;;;;;;;60.38;23.50;;;;;;;-146.27;90.05;83151.63;5036736;28;20032;-76
2023/10/23 08:55:33;;;;;;;49.85;21.38;;;;;;;-146.27;89.93;83125.50;5034606;28;20079;-75
2023/10/23 08:58:00;;;;;;;59.00;21.40;;;;;;;-146.27;89.78;83135.53;5040076;28;20065;-76
2023/10/23 09:00:25;;;;;;;70.22;22.42;;;;;;;-146.27;90.23;83131.53;5041001;28;20409;-75
2023/10/23 09:02:51;;;;;;;89.28;21.70;;;;;;;-146.27;90.29;83159.66;5043327;28;20031;-75
2023/10/23 09:05:17;;;;;;;58.10;21.90;;;;;;;-146.27;90.32;83161.66;5050389;28;20058;-76
2023/10/23 09:07:44;;;;;;;49.88;21.05;;;;;;;-146.27;89.99;83129.53;5033819;28;20750;-75
2023/10/23 09:10:09;;;;;;;52.58;20.70;;;;;;;-146.27;89.66;83111.44;5036289;28;20025;-75
2023/10/23 09:12:36;;;;;;;52.75;23.05;;;;;;;-146.27;89.51;83135.53;5050475;28;20031;-75
2023/10/23 09:15:20;;;;;;;53.42;22.83;;;;;;;-146.27;89.66;83135.53;5035740;28;20025;-75
2023/10/23 09:17:46;;;;;;;56.40;22.00;;;;;;;-146.27;89.88;83119.47;5018074;28;20075;-76
2023/10/23 09:20:15;;;;;;;51.28;21.95;;;;;;;-146.27;89.86;83107.41;5048097;28;20045;-75
2023/10/23 09:22:41;;;;;;;53.55;20.98;;;;;;;-146.27;89.80;83127.50;5037167;28;20036;-74
2023/10/23 09:25:09;;;;;;;54.55;21.75;;;;;;;-146.27;90.07;83095.38;5042920;28;20029;-74
2023/10/23 09:27:35;;;;;;;54.00;22.33;;;;;;;-146.27;89.80;83127.50;5032665;28;20618;-77
2023/10/23 09:30:02;;;;;;;54.03;21.08;;;;;;;-146.27;89.72;83087.31;5047568;28;20112;-76
2023/10/23 09:32:29;;;;;;;46.40;21.70;;;;;;;-146.27;89.53;83107.41;5048116;28;20083;-75
2023/10/23 09:34:54;;;;;;;51.50;20.20;;;;;;;-146.27;89.43;83091.34;5049150;28;20024;-75
2023/10/23 09:37:19;;;;;;;49.55;20.38;;;;;;;-146.27;89.62;83131.53;5042941;28;20029;-76
2023/10/23 09:39:45;;;;;;;54.28;20.08;;;;;;;-146.27;89.66;83099.38;5029680;28;20021;-79
2023/10/23 09:42:11;;;;;;;48.45;19.58;;;;;;;-146.27;89.86;83119.47;5030481;28;20520;-79
2023/10/23 09:44:38;;;;;;;47.42;19.48;;;;;;;-146.27;89.99;83161.66;5030710;28;20448;-77
2023/10/23 09:47:07;;;;;;;51.85;21.10;;;;;;;-146.27;89.59;83131.53;5025845;28;20032;-78
2023/10/23 09:49:32;;;;;;;52.58;20.38;;;;;;;-146.27;89.43;83129.53;5030006;28;20025;-79
2023/10/23 09:51:59;;;;;;;49.28;20.02;;;;;;;-146.27;89.52;83161.66;5033742;28;20025;-79
2023/10/23 09:54:27;;;;;;;47.05;18.73;;;;;;;-146.27;89.67;83147.59;5028585;28;20034;-79
2023/10/23 09:56:54;;;;;;;47.63;20.95;;;;;;;-146.27;89.31;83147.59;5026498;28;20025;-79
2023/10/23 09:59:27;;;;;;;48.83;20.13;;;;;;;-146.27;89.48;83115.47;5030387;28;20030;-80
2023/10/23 10:01:59;;;;;;;48.58;19.75;;;;;;;-146.27;90.04;83129.53;5042312;28;20076;-79
2023/10/23 10:04:51;;;;;;;53.47;20.58;;;;;;;-146.27;89.86;83143.59;5050118;28;20492;-78
2023/10/23 10:07:36;;;;;;;53.05;21.40;;;;;;;-146.27;89.76;83131.53;5028939;28;20025;-81
2023/10/23 10:10:05;;;;;;;51.58;20.52;;;;;;;-146.27;89.76;83107.41;5047193;28;20044;-80
2023/10/23 10:12:34;;;;;;;49.38;20.23;;;;;;;-146.27;89.69;83129.53;5049545;28;20052;-80
2023/10/23 10:15:01;;;;;;;55.95;21.27;;;;;;;-146.27;89.43;83101.38;5052582;28;20108;-79
2023/10/23 10:17:27;;;;;;;59.60;22.33;;;;;;;-146.27;89.37;83111.44;5054282;28;20040;-80
2023/10/23 10:19:55;;;;;;;62.08;22.52;;;;;;;-146.27;89.56;83117.47;5053283;28;20033;-79
2023/10/23 10:22:29;;;;;;;60.15;22.80;;;;;;;-146.27;89.70;83071.25;5037154;28;20026;-79
2023/10/23 10:24:56;;;;;;;72.35;25.60;;;;;;;-146.27;89.71;83103.41;5025880;28;20040;-80
2023/10/23 10:27:22;;;;;;;67.88;24.30;;;;;;;-146.27;89.99;83051.16;5045481;28;20025;-80
2023/10/23 10:29:47;;;;;;;67.47;25.00;;;;;;;-146.27;89.77;83033.09;5054316;28;20401;-80
2023/10/23 10:32:13;;;;;;;71.97;24.48;;;;;;;-146.27;89.53;83055.19;5047286;28;20496;-80
2023/10/23 10:34:52;;;;;;;69.85;26.30;;;;;;;-146.27;89.53;83081.31;5032566;28;20564;-80
2023/10/23 10:37:20;;;;;;;82.03;27.40;;;;;;;-146.27;89.44;83063.22;5042760;28;20025;-81
2023/10/23 10:39:52;;;;;;;83.35;27.60;;;;;;;-146.27;89.20;83023.03;5044549;28;20036;-80
2023/10/23 10:42:19;;;;;;;76.05;27.58;;;;;;;-146.27;88.95;83045.13;5047551;28;20107;-80
2023/10/23 10:45:00;;;;;;;83.90;28.40;;;;;;;-146.27;88.95;83039.09;5046962;28;20037;-81
2023/10/23 10:47:43;;;;;;;78.70;26.67;;;;;;;-146.27;89.06;83013.00;5046086;28;20032;-80
2023/10/23 10:50:12;;;;;;;83.07;30.65;;;;;;;-146.27;89.37;83029.06;5044678;28;20538;-80
2023/10/23 10:52:40;;;;;;;76.72;27.25;;;;;;;-146.27;89.32;83015.00;5035062;28;20071;-80
2023/10/23 10:55:08;;;;;;;83.45;28.92;;;;;;;-146.27;89.13;83027.06;5037349;28;20469;-80
2023/10/23 10:57:34;;;;;;;83.10;28.13;;;;;;;-146.27;89.33;83010.97;5050736;28;20036;-79
2023/10/23 11:00:00;;;;;;;82.32;28.30;;;;;;;-146.27;89.26;82992.91;5042803;28;20111;-80
2023/10/23 11:02:27;;;;;;;75.68;28.35;;;;;;;-146.27;89.37;82974.81;5048345;28;20355;-80